KBZN

Bozeman Yellowstone International Airport

Bozeman, Montana, USA
METAR KBZN 212056Z 00000KT 10SM CLR 18/01 A3008 RMK AO2 SLP176 T01830006 58020
Observed Flight Rules
Oct-21 @ 20:56 UTC (18 minutes ago) Visual Flight Rules
Visibility Clouds
10 miles
  • Clear skies
Temperatures Readings
Current 18°C / 64°F
Dewpoint 1°C / 34°F
Humidity 32%
Altimeter 30.08" Hg
Pressure 1017.6 hPa
Elevation 1361
METAR KBZN 212056Z 00000KT 10SM CLR 18/01 A3008 RMK AO2 SLP176 T01830006 58020
Observed Flight Rules
Oct-21 @ 20:56 UTC
(18 minutes ago)
VFR
Clouds
  • Clear skies
Temperature Dewpoint
18°C / 64°F 1°C / 34°F
Humidity Altimeter Pressure
32% 30.08" Hg 1017.6 hPa